createdAt,value
2022-08-30T00:02:11.923Z,8.32
2022-08-30T00:04:40.440Z,8.20
2022-08-30T00:07:08.733Z,7.97
2022-08-30T00:09:37.027Z,7.28
2022-08-30T00:12:05.678Z,6.65
2022-08-30T00:14:34.004Z,6.78
2022-08-30T00:17:02.278Z,7.53
2022-08-30T00:19:32.013Z,8.25
2022-08-30T00:22:00.402Z,8.23
2022-08-30T00:24:29.171Z,8.25
2022-08-30T00:26:57.458Z,8.20
2022-08-30T00:29:25.879Z,7.90
2022-08-30T00:31:54.228Z,8.15
2022-08-30T00:34:22.591Z,8.90
2022-08-30T00:36:52.292Z,9.38
2022-08-30T00:39:20.651Z,8.98
2022-08-30T00:41:49.000Z,8.93
2022-08-30T00:44:17.366Z,9.23
2022-08-30T00:46:45.715Z,8.68
2022-08-30T00:49:14.667Z,8.68
2022-08-30T00:51:43.224Z,8.90
2022-08-30T00:54:13.318Z,7.25
2022-08-30T00:56:42.155Z,7.43
2022-08-30T00:59:10.929Z,7.22
2022-08-30T01:01:39.346Z,6.72
2022-08-30T01:04:09.734Z,7.95
2022-08-30T01:06:39.977Z,7.32
2022-08-30T01:09:09.239Z,6.45
2022-08-30T01:11:39.564Z,5.13
2022-08-30T01:14:08.352Z,4.10
2022-08-30T01:16:37.615Z,3.38
2022-08-30T01:19:07.811Z,3.50
2022-08-30T01:21:43.748Z,3.80
2022-08-30T01:24:14.081Z,4.60
2022-08-30T01:26:42.614Z,5.07
2022-08-30T01:29:13.186Z,5.28
2022-08-30T01:34:10.052Z,5.38
2022-08-30T01:36:44.674Z,4.40
2022-08-30T01:39:16.545Z,4.97
2022-08-30T01:41:45.328Z,5.35
2022-08-30T01:44:15.087Z,5.75
2022-08-30T01:46:48.016Z,6.00
2022-08-30T01:49:27.436Z,6.38
2022-08-30T01:52:00.636Z,7.70
2022-08-30T01:54:37.007Z,7.75
2022-08-30T01:57:10.086Z,8.07
2022-08-30T01:59:39.745Z,8.30
2022-08-30T02:02:08.500Z,8.13
2022-08-30T02:04:37.289Z,8.55
2022-08-30T02:07:05.950Z,8.70
2022-08-30T02:09:35.735Z,8.82
2022-08-30T02:12:04.605Z,10.05
2022-08-30T02:14:33.484Z,9.00
2022-08-30T02:17:02.382Z,7.78
2022-08-30T02:19:31.330Z,6.47
2022-08-30T02:21:59.643Z,7.47
2022-08-30T02:24:28.263Z,6.45
2022-08-30T02:26:58.159Z,6.60
2022-08-30T02:29:27.121Z,6.80
2022-08-30T02:31:55.434Z,6.38
2022-08-30T02:34:23.835Z,6.25
2022-08-30T02:36:52.184Z,6.97
2022-08-30T02:39:20.515Z,7.10
2022-08-30T02:41:48.818Z,7.57
2022-08-30T02:44:18.593Z,7.28
2022-08-30T02:46:48.073Z,8.90
2022-08-30T02:49:33.117Z,7.40
2022-08-30T02:52:02.393Z,6.70
2022-08-30T02:54:33.092Z,6.22
2022-08-30T02:57:04.708Z,7.05
2022-08-30T02:59:37.777Z,7.07
2022-08-30T03:02:07.434Z,4.47
2022-08-30T03:04:35.768Z,5.18
2022-08-30T03:07:04.202Z,5.80
2022-08-30T03:09:32.680Z,5.60
2022-08-30T03:12:01.079Z,5.25
2022-08-30T03:14:29.707Z,3.92
2022-08-30T03:16:59.883Z,4.18
2022-08-30T03:19:28.139Z,4.25
2022-08-30T03:21:56.604Z,5.97
2022-08-30T03:24:25.091Z,5.05
2022-08-30T03:26:53.951Z,5.40
2022-08-30T03:29:22.905Z,5.47
2022-08-30T03:31:53.004Z,5.50
2022-08-30T03:34:24.082Z,5.15
2022-08-30T03:36:53.591Z,5.85
2022-08-30T03:39:23.424Z,6.00
2022-08-30T03:41:52.088Z,6.43
2022-08-30T03:44:20.633Z,7.15
2022-08-30T03:46:50.573Z,6.97
2022-08-30T03:49:19.691Z,7.40
2022-08-30T03:51:49.705Z,7.50
2022-08-30T03:54:18.933Z,8.63
2022-08-30T03:56:47.289Z,9.50
2022-08-30T03:59:15.637Z,9.57
2022-08-30T04:01:45.730Z,10.82
2022-08-30T04:04:18.646Z,12.05
2022-08-30T04:06:50.523Z,11.75
2022-08-30T04:09:19.459Z,12.32
2022-08-30T04:11:47.870Z,15.57
2022-08-30T04:14:16.303Z,14.75
2022-08-30T04:16:44.968Z,13.32
2022-08-30T04:19:13.320Z,12.43
2022-08-30T04:21:42.832Z,13.27
2022-08-30T04:24:13.271Z,13.70
2022-08-30T04:26:41.677Z,11.52
2022-08-30T04:29:11.754Z,11.10
2022-08-30T04:31:40.083Z,11.43
2022-08-30T04:34:09.468Z,10.82
2022-08-30T04:36:37.840Z,11.10
2022-08-30T04:39:07.205Z,12.05
2022-08-30T04:41:40.135Z,12.35
2022-08-30T04:44:08.762Z,13.48
2022-08-30T04:46:44.431Z,12.75
2022-08-30T04:49:13.111Z,13.63
2022-08-30T04:51:41.585Z,13.52
2022-08-30T04:54:09.886Z,14.05
2022-08-30T04:56:39.872Z,14.50
2022-08-30T04:59:08.220Z,15.00
2022-08-30T05:01:45.300Z,15.40
2022-08-30T05:04:14.604Z,15.18
2022-08-30T05:06:43.573Z,14.05
2022-08-30T05:09:12.068Z,13.65
2022-08-30T05:11:43.378Z,12.00
2022-08-30T05:14:12.107Z,11.38
2022-08-30T05:16:41.530Z,11.15
2022-08-30T05:19:10.009Z,10.67
2022-08-30T05:21:40.604Z,9.90
2022-08-30T05:24:09.900Z,9.75
2022-08-30T05:26:41.141Z,9.70
2022-08-30T05:29:09.517Z,8.93
2022-08-30T05:31:38.226Z,9.73
2022-08-30T05:34:06.644Z,9.80
2022-08-30T05:36:36.213Z,9.48
2022-08-30T05:39:05.794Z,10.00
2022-08-30T05:41:34.307Z,9.70
2022-08-30T05:44:08.410Z,9.55
2022-08-30T05:46:37.407Z,8.77
2022-08-30T05:49:08.260Z,10.00
2022-08-30T05:51:42.902Z,10.50
2022-08-30T05:54:12.903Z,9.90
2022-08-30T05:56:42.710Z,10.02
2022-08-30T05:59:13.851Z,10.40
2022-08-30T06:01:43.871Z,11.02
2022-08-30T06:04:14.114Z,11.25
2022-08-30T06:06:44.219Z,10.35
2022-08-30T06:09:14.017Z,10.85
2022-08-30T06:11:42.712Z,12.05
2022-08-30T06:14:12.536Z,12.30
2022-08-30T06:16:41.513Z,12.02
2022-08-30T06:19:11.065Z,12.50
2022-08-30T06:21:40.622Z,12.55
2022-08-30T06:24:10.440Z,12.55
2022-08-30T06:26:41.291Z,12.32
2022-08-30T06:29:12.259Z,12.27
2022-08-30T06:31:40.710Z,12.15
2022-08-30T06:34:09.188Z,12.05
2022-08-30T06:36:38.649Z,12.38
2022-08-30T06:39:07.420Z,13.07
2022-08-30T06:41:37.889Z,14.10
2022-08-30T06:46:38.580Z,13.13
2022-08-30T06:49:07.934Z,13.30
2022-08-30T06:51:37.956Z,12.65
2022-08-30T06:54:10.677Z,13.57
2022-08-30T06:56:55.165Z,12.60
2022-08-30T06:59:24.614Z,14.13
2022-08-30T07:01:54.420Z,13.38
2022-08-30T07:04:22.799Z,13.40
2022-08-30T07:06:51.097Z,12.98
2022-08-30T07:09:20.085Z,13.77
2022-08-30T07:11:51.498Z,14.35
2022-08-30T07:14:20.601Z,14.48
2022-08-30T07:16:51.190Z,14.90
2022-08-30T07:19:22.545Z,14.40
2022-08-30T07:21:51.266Z,14.68
2022-08-30T07:24:20.186Z,14.80
2022-08-30T07:26:51.707Z,14.15
2022-08-30T07:29:21.340Z,14.20
2022-08-30T07:31:50.048Z,14.63
2022-08-30T07:34:20.463Z,14.38
2022-08-30T07:36:52.152Z,14.35
2022-08-30T07:39:20.887Z,14.63
2022-08-30T07:41:50.888Z,13.57
2022-08-30T07:44:19.321Z,14.85
2022-08-30T07:46:53.412Z,14.05
2022-08-30T07:49:21.825Z,13.52
2022-08-30T07:51:51.905Z,13.25
2022-08-30T07:54:20.383Z,13.10
2022-08-30T07:56:48.825Z,13.35
2022-08-30T07:59:17.197Z,12.20
2022-08-30T08:01:45.659Z,11.73
2022-08-30T08:04:13.934Z,11.70
2022-08-30T08:06:42.283Z,12.52
2022-08-30T08:09:12.015Z,11.77
2022-08-30T08:11:41.397Z,12.80
2022-08-30T08:14:10.383Z,12.00
2022-08-30T08:16:39.417Z,12.07
2022-08-30T08:19:09.221Z,12.15
2022-08-30T08:21:38.034Z,11.13
2022-08-30T08:24:06.585Z,10.85
2022-08-30T08:26:37.629Z,11.30
2022-08-30T08:29:06.975Z,10.50
2022-08-30T08:31:35.334Z,11.67
2022-08-30T08:34:05.807Z,10.10
2022-08-30T08:36:35.758Z,11.18
2022-08-30T08:39:06.173Z,10.40
2022-08-30T08:41:43.415Z,11.07
2022-08-30T08:44:16.621Z,9.60
2022-08-30T08:46:50.644Z,9.98
2022-08-30T08:49:19.068Z,9.70
2022-08-30T08:52:19.512Z,9.88
2022-08-30T08:54:51.439Z,9.27
2022-08-30T08:57:24.474Z,8.90
2022-08-30T08:59:54.574Z,9.85
2022-08-30T09:02:26.607Z,8.85
2022-08-30T09:04:57.286Z,8.88
2022-08-30T09:07:27.943Z,8.27
2022-08-30T09:09:57.825Z,8.27
2022-08-30T09:12:28.268Z,7.28
2022-08-30T09:15:00.304Z,7.70
2022-08-30T09:17:28.770Z,7.70
2022-08-30T09:20:02.555Z,6.95
2022-08-30T09:22:37.165Z,7.05
2022-08-30T09:25:08.261Z,7.32
2022-08-30T09:27:39.618Z,6.53
2022-08-30T09:30:11.397Z,6.28
2022-08-30T09:32:47.651Z,6.18
2022-08-30T09:35:21.497Z,6.55
2022-08-30T09:37:54.461Z,6.78
2022-08-30T09:40:27.180Z,6.45
2022-08-30T09:43:07.468Z,6.22
2022-08-30T09:45:39.151Z,5.28
2022-08-30T09:48:30.150Z,4.75
2022-08-30T09:51:09.940Z,6.43
2022-08-30T09:53:50.952Z,7.07
2022-08-30T09:56:33.894Z,5.18
2022-08-30T09:59:08.066Z,6.57
2022-08-30T10:01:41.782Z,6.38
2022-08-30T10:04:16.385Z,6.28
2022-08-30T10:06:48.067Z,5.18
2022-08-30T10:09:23.716Z,5.18
2022-08-30T10:11:59.408Z,6.50
2022-08-30T10:14:47.001Z,7.10
2022-08-30T10:17:27.090Z,7.20
2022-08-30T10:22:32.588Z,5.30
2022-08-30T10:25:04.584Z,5.20
2022-08-30T10:27:38.705Z,5.55
2022-08-30T10:30:11.925Z,5.45
2022-08-30T10:32:44.287Z,5.80
2022-08-30T10:35:19.225Z,5.20
2022-08-30T10:37:51.881Z,5.88
2022-08-30T10:40:44.761Z,6.07
2022-08-30T10:43:20.802Z,6.20
2022-08-30T10:45:53.449Z,5.25
2022-08-30T10:48:25.351Z,5.97
2022-08-30T10:50:56.097Z,6.82
2022-08-30T10:53:30.735Z,6.25
2022-08-30T10:56:02.661Z,5.90
2022-08-30T10:58:32.374Z,5.50
2022-08-30T11:01:12.597Z,5.85
2022-08-30T11:04:01.866Z,6.00
2022-08-30T11:06:36.327Z,5.40
2022-08-30T11:09:31.932Z,4.78
2022-08-30T11:12:26.487Z,4.85
2022-08-30T11:14:55.047Z,5.78
2022-08-30T11:17:30.773Z,5.10
2022-08-30T11:20:01.867Z,5.07
2022-08-30T11:22:34.415Z,4.80
2022-08-30T11:25:12.541Z,4.88
2022-08-30T11:27:46.676Z,4.70
2022-08-30T11:30:49.799Z,4.75
2022-08-30T11:33:46.274Z,4.55
2022-08-30T11:37:09.531Z,4.68
2022-08-30T11:40:14.177Z,4.93
2022-08-30T11:42:48.296Z,4.70
2022-08-30T11:48:07.416Z,4.53
2022-08-30T11:50:46.452Z,5.00
2022-08-30T11:53:22.417Z,4.53
2022-08-30T11:55:58.045Z,4.55
2022-08-30T11:58:34.920Z,5.00
2022-08-30T12:01:40.776Z,4.80
2022-08-30T12:04:08.510Z,5.03
2022-08-30T12:06:51.792Z,5.10
2022-08-30T12:10:04.734Z,5.10
2022-08-30T12:12:52.635Z,4.63
2022-08-30T12:15:56.826Z,4.30
2022-08-30T12:18:32.797Z,4.53
2022-08-30T12:21:05.988Z,4.88
2022-08-30T12:23:44.683Z,5.40
2022-08-30T12:26:20.136Z,5.15
2022-08-30T12:28:51.044Z,4.82
2022-08-30T12:31:22.218Z,5.00
2022-08-30T12:33:56.606Z,5.25
2022-08-30T12:36:36.298Z,4.82
2022-08-30T12:39:11.660Z,5.40
2022-08-30T12:41:43.469Z,5.00
2022-08-30T12:44:16.369Z,5.20
2022-08-30T12:46:49.203Z,4.30
2022-08-30T12:49:19.820Z,4.90
2022-08-30T12:51:48.147Z,5.05
2022-08-30T12:54:21.297Z,5.20
2022-08-30T12:57:06.620Z,4.97
2022-08-30T12:59:55.392Z,5.10
2022-08-30T13:02:28.691Z,5.35
2022-08-30T13:07:28.292Z,4.82
2022-08-30T13:10:12.022Z,4.78
2022-08-30T13:12:41.772Z,5.07
2022-08-30T13:15:17.564Z,5.38
2022-08-30T13:17:46.819Z,4.68
2022-08-30T13:20:26.836Z,4.90
2022-08-30T13:25:32.809Z,4.60
2022-08-30T13:28:02.095Z,4.65
2022-08-30T13:30:31.063Z,4.63
2022-08-30T13:33:01.214Z,4.28
2022-08-30T13:35:31.701Z,4.30
2022-08-30T13:38:01.780Z,4.32
2022-08-30T13:40:31.585Z,4.55
2022-08-30T13:45:43.588Z,4.75
2022-08-30T13:48:12.733Z,4.32
2022-08-30T13:50:41.455Z,4.80
2022-08-30T13:53:10.266Z,4.53
2022-08-30T13:55:42.298Z,4.85
2022-08-30T13:58:13.611Z,5.20
2022-08-30T14:00:42.182Z,4.80
2022-08-30T14:03:12.119Z,5.40
2022-08-30T14:05:50.521Z,5.20
2022-08-30T14:11:18.351Z,4.72
2022-08-30T14:16:38.397Z,4.68
2022-08-30T14:19:07.613Z,4.40
2022-08-30T14:21:36.305Z,4.78
2022-08-30T14:24:06.500Z,4.65
2022-08-30T14:26:38.681Z,4.55
2022-08-30T14:29:10.110Z,4.32
2022-08-30T14:31:39.328Z,4.35
2022-08-30T14:34:10.922Z,5.28
2022-08-30T14:36:41.424Z,4.47
2022-08-30T14:39:14.417Z,4.50
2022-08-30T14:41:47.215Z,4.68
2022-08-30T14:44:17.929Z,5.00
2022-08-30T14:46:46.539Z,4.95
2022-08-30T14:49:15.453Z,5.18
2022-08-30T14:51:46.218Z,4.70
2022-08-30T14:54:14.638Z,5.00
2022-08-30T14:56:44.283Z,5.22
2022-08-30T14:59:13.337Z,4.80
2022-08-30T15:01:42.446Z,4.63
2022-08-30T15:04:11.840Z,4.33
2022-08-30T15:06:41.697Z,4.35
2022-08-30T15:11:39.345Z,4.60
2022-08-30T15:14:14.035Z,4.90
2022-08-30T15:16:44.555Z,4.20
2022-08-30T15:19:13.272Z,4.40
2022-08-30T15:21:43.736Z,4.30
2022-08-30T15:24:15.794Z,4.80
2022-08-30T15:26:44.671Z,4.38
2022-08-30T15:29:16.028Z,4.53
2022-08-30T15:31:45.408Z,4.50
2022-08-30T15:34:19.999Z,4.82
2022-08-30T15:36:49.075Z,4.38
2022-08-30T15:41:55.977Z,4.70
2022-08-30T15:44:28.231Z,4.57
2022-08-30T15:46:56.598Z,4.80
2022-08-30T15:49:25.933Z,4.57
2022-08-30T15:51:54.789Z,4.63
2022-08-30T15:54:24.738Z,4.78
2022-08-30T15:56:59.418Z,4.68
2022-08-30T15:59:29.740Z,4.30
2022-08-30T16:01:58.866Z,4.72
2022-08-30T16:04:27.949Z,5.18
2022-08-30T16:06:56.463Z,5.20
2022-08-30T16:09:26.512Z,4.50
2022-08-30T16:11:58.690Z,4.50
2022-08-30T16:14:27.646Z,4.60
2022-08-30T16:16:57.783Z,4.78
2022-08-30T16:19:26.984Z,5.32
2022-08-30T16:21:55.353Z,4.50
2022-08-30T16:24:23.741Z,4.90
2022-08-30T16:26:52.091Z,5.18
2022-08-30T16:29:20.545Z,4.97
2022-08-30T16:31:49.453Z,4.85
2022-08-30T16:34:20.884Z,5.35
2022-08-30T16:36:49.753Z,4.97
2022-08-30T16:39:18.513Z,4.88
2022-08-30T16:41:47.174Z,4.63
2022-08-30T16:44:17.966Z,5.43
2022-08-30T16:46:52.561Z,5.47
2022-08-30T16:49:25.514Z,5.22
2022-08-30T16:51:54.503Z,5.53
2022-08-30T16:54:23.221Z,5.10
2022-08-30T16:56:51.626Z,5.65
2022-08-30T16:59:20.060Z,5.53
2022-08-30T17:01:49.244Z,5.10
2022-08-30T17:04:18.396Z,4.80
2022-08-30T17:09:19.219Z,4.45
2022-08-30T17:11:47.905Z,4.90
2022-08-30T17:14:21.476Z,5.40
2022-08-30T17:16:51.940Z,5.50
2022-08-30T17:19:26.842Z,5.75
2022-08-30T17:21:58.189Z,5.70
2022-08-30T17:24:27.094Z,5.10
2022-08-30T17:26:55.655Z,6.85
2022-08-30T17:29:23.991Z,5.70
2022-08-30T17:31:52.377Z,5.28
2022-08-30T17:34:22.168Z,5.78
2022-08-30T17:36:51.174Z,5.85
2022-08-30T17:39:20.790Z,5.70
2022-08-30T17:41:50.036Z,5.57
2022-08-30T17:44:20.486Z,5.72
2022-08-30T17:46:48.881Z,6.57
2022-08-30T17:49:17.530Z,5.97
2022-08-30T17:51:47.867Z,6.30
2022-08-30T17:54:16.560Z,6.28
2022-08-30T17:56:47.889Z,6.20
2022-08-30T18:01:45.858Z,5.70
2022-08-30T18:06:48.816Z,5.53
2022-08-30T18:09:17.899Z,6.18
2022-08-30T18:11:48.369Z,6.00
2022-08-30T18:14:17.180Z,5.85
2022-08-30T18:16:53.110Z,6.10
2022-08-30T18:19:23.661Z,5.57
2022-08-30T18:21:52.123Z,6.03
2022-08-30T18:24:20.964Z,5.53
2022-08-30T18:26:50.738Z,5.90
2022-08-30T18:29:29.327Z,6.00
2022-08-30T18:34:28.406Z,6.03
2022-08-30T18:36:57.147Z,6.80
2022-08-30T18:39:25.598Z,6.30
2022-08-30T18:41:56.877Z,6.10
2022-08-30T18:44:28.641Z,6.07
2022-08-30T18:47:00.503Z,6.00
2022-08-30T18:49:32.169Z,6.20
2022-08-30T18:52:01.512Z,6.15
2022-08-30T18:54:30.373Z,6.10
2022-08-30T18:57:00.012Z,6.20
2022-08-30T18:59:35.327Z,5.72
2022-08-30T19:02:06.626Z,5.90
2022-08-30T19:04:35.957Z,6.53
2022-08-30T19:07:09.087Z,6.23
2022-08-30T19:09:37.590Z,6.50
2022-08-30T19:12:09.783Z,5.97
2022-08-30T19:14:40.325Z,6.22
2022-08-30T19:17:09.271Z,6.40
2022-08-30T19:19:48.392Z,5.72
2022-08-30T19:22:19.051Z,6.38
2022-08-30T19:24:49.894Z,5.90
2022-08-30T19:27:40.142Z,5.88
2022-08-30T19:30:11.036Z,6.18
2022-08-30T19:32:39.516Z,5.85
2022-08-30T19:35:09.412Z,6.00
2022-08-30T19:37:38.205Z,6.00
2022-08-30T19:40:08.392Z,6.60
2022-08-30T19:45:17.677Z,6.72
2022-08-30T19:47:47.063Z,6.78
2022-08-30T19:50:17.375Z,6.60
2022-08-30T19:55:28.143Z,6.43
2022-08-30T19:57:58.794Z,7.03
2022-08-30T20:02:58.998Z,6.70
2022-08-30T20:05:27.803Z,6.22
2022-08-30T20:07:58.376Z,6.63
2022-08-30T20:10:26.945Z,7.47
2022-08-30T20:12:55.645Z,7.45
2022-08-30T20:15:26.262Z,6.70
2022-08-30T20:18:05.228Z,7.30
2022-08-30T20:20:36.533Z,6.63
2022-08-30T20:23:05.763Z,6.78
2022-08-30T20:25:34.469Z,7.28
2022-08-30T20:28:03.865Z,7.45
2022-08-30T20:30:33.617Z,6.60
2022-08-30T20:33:07.072Z,7.20
2022-08-30T20:35:38.432Z,7.20
2022-08-30T20:38:07.062Z,8.10
2022-08-30T20:40:37.102Z,7.88
2022-08-30T20:43:05.934Z,7.85
2022-08-30T20:45:35.777Z,7.47
2022-08-30T20:48:05.677Z,7.10
2022-08-30T20:50:34.000Z,7.30
2022-08-30T20:53:02.772Z,7.30
2022-08-30T20:55:31.134Z,7.75
2022-08-30T20:57:59.653Z,7.40
2022-08-30T21:00:28.517Z,7.88
2022-08-30T21:02:58.831Z,7.63
2022-08-30T21:05:27.310Z,7.53
2022-08-30T21:07:55.674Z,7.40
2022-08-30T21:10:24.512Z,7.80
2022-08-30T21:12:53.427Z,8.40
2022-08-30T21:15:38.234Z,8.02
2022-08-30T21:18:08.257Z,8.25
2022-08-30T21:20:36.825Z,8.13
2022-08-30T21:23:05.361Z,8.23
2022-08-30T21:25:34.357Z,8.32
2022-08-30T21:28:02.928Z,8.93
2022-08-30T21:30:31.355Z,8.52
2022-08-30T21:33:00.741Z,8.43
2022-08-30T21:35:48.076Z,8.43
2022-08-30T21:38:16.830Z,9.00
2022-08-30T21:40:45.483Z,9.25
2022-08-30T21:43:13.885Z,8.23
2022-08-30T21:45:43.252Z,7.85
2022-08-30T21:48:13.716Z,7.97
2022-08-30T21:53:12.097Z,8.57
2022-08-30T21:55:45.689Z,8.43
2022-08-30T21:58:16.685Z,8.15
2022-08-30T22:00:45.038Z,8.73
2022-08-30T22:03:13.677Z,9.30
2022-08-30T22:05:46.018Z,9.15
2022-08-30T22:08:14.413Z,8.82
2022-08-30T22:10:44.830Z,9.05
2022-08-30T22:15:41.917Z,8.90
2022-08-30T22:18:10.305Z,9.68
2022-08-30T22:20:39.739Z,8.93
2022-08-30T22:23:11.213Z,8.88
2022-08-30T22:25:44.134Z,9.65
2022-08-30T22:28:13.683Z,9.07
2022-08-30T22:30:42.050Z,9.10
2022-08-30T22:33:10.543Z,9.35
2022-08-30T22:35:39.012Z,8.45
2022-08-30T22:38:07.822Z,8.10
2022-08-30T22:40:37.627Z,8.80
2022-08-30T22:43:06.101Z,9.07
2022-08-30T22:45:34.486Z,9.50
2022-08-30T22:48:03.089Z,10.02
2022-08-30T22:50:31.797Z,9.80
2022-08-30T22:53:00.188Z,10.00
2022-08-30T22:55:28.913Z,9.70
2022-08-30T22:57:58.661Z,10.18
2022-08-30T23:00:27.060Z,10.30
2022-08-30T23:02:55.534Z,9.95
2022-08-30T23:05:24.630Z,9.52
2022-08-30T23:07:52.952Z,9.95
2022-08-30T23:10:27.871Z,9.48
2022-08-30T23:12:56.203Z,9.55
2022-08-30T23:15:26.715Z,9.95
2022-08-30T23:20:24.057Z,9.95
2022-08-30T23:23:00.264Z,10.13
2022-08-30T23:25:51.834Z,10.20
2022-08-30T23:28:39.571Z,10.60
2022-08-30T23:31:31.699Z,9.65
2022-08-30T23:34:18.117Z,9.50
2022-08-30T23:37:03.939Z,10.07
2022-08-30T23:39:50.182Z,9.88
2022-08-30T23:42:35.763Z,9.38
2022-08-30T23:45:21.866Z,10.48
2022-08-30T23:48:08.776Z,10.40
2022-08-30T23:50:54.648Z,9.63
2022-08-30T23:53:43.804Z,9.50
2022-08-30T23:56:30.441Z,9.55
2022-08-30T23:59:16.486Z,9.35
